Terminal Aerodrome Forecast
Issued by NWS

Home | Current Version | Previous Version | Text Only | Print | Product List | Glossary On
Versions: 1 2 3 4 5 6 7 8 9 10 11 12 13 14 15 16 17 18 19 20
000
FTUS46 KSEW 260700 AAB
TAFCLM
TAF AMD
KCLM 260740Z 2608/2706 13004KT 6SM BR SCT006 BKN045 OVC060
      TEMPO 2608/2612 3SM -RA BR BKN003 OVC013
     FM261200 28003KT 4SM -RA BR OVC012
     FM261500 25004KT 4SM BR OVC012
     FM262000 VRB03KT P6SM OVC020=

USA.gov is the U.S. government's official web portal to all federal, state and local government web resources and services.